sensor_id;sensor_type;location;lat;lon;timestamp;temperature;humidity
63960;DHT22;50136;51.374;0.096;2023-04-03T00:02:02;5.00;99.90
63960;DHT22;50136;51.374;0.096;2023-04-03T00:12:05;4.90;99.90
63960;DHT22;50136;51.374;0.096;2023-04-03T00:22:08;4.80;99.90
63960;DHT22;50136;51.374;0.096;2023-04-03T00:32:10;4.70;99.90
63960;DHT22;50136;51.374;0.096;2023-04-03T00:42:13;4.70;99.90
63960;DHT22;50136;51.374;0.096;2023-04-03T00:52:19;4.70;99.90
63960;DHT22;50136;51.374;0.096;2023-04-03T01:02:25;4.50;99.90
63960;DHT22;50136;51.374;0.096;2023-04-03T01:12:28;4.50;99.90
63960;DHT22;50136;51.374;0.096;2023-04-03T01:22:35;4.20;99.90
63960;DHT22;50136;51.374;0.096;2023-04-03T01:32:47;4.00;99.90
63960;DHT22;50136;51.374;0.096;2023-04-03T01:42:50;3.80;99.90
63960;DHT22;50136;51.374;0.096;2023-04-03T01:52:53;3.80;99.90
63960;DHT22;50136;51.374;0.096;2023-04-03T02:02:55;3.80;99.90
63960;DHT22;50136;51.374;0.096;2023-04-03T02:12:59;3.70;99.90
63960;DHT22;50136;51.374;0.096;2023-04-03T02:23:01;3.50;99.90
63960;DHT22;50136;51.374;0.096;2023-04-03T02:33:05;3.30;99.90
63960;DHT22;50136;51.374;0.096;2023-04-03T02:43:07;3.20;99.90
63960;DHT22;50136;51.374;0.096;2023-04-03T02:53:10;3.10;99.90
63960;DHT22;50136;51.374;0.096;2023-04-03T03:03:12;2.70;99.90
63960;DHT22;50136;51.374;0.096;2023-04-03T03:13:15;2.60;99.90
63960;DHT22;50136;51.374;0.096;2023-04-03T03:23:17;2.30;99.90
63960;DHT22;50136;51.374;0.096;2023-04-03T03:33:21;2.20;99.90
63960;DHT22;50136;51.374;0.096;2023-04-03T03:43:22;2.20;99.90
63960;DHT22;50136;51.374;0.096;2023-04-03T03:53:26;2.00;99.90
63960;DHT22;50136;51.374;0.096;2023-04-03T04:03:28;1.90;99.90
63960;DHT22;50136;51.374;0.096;2023-04-03T04:13:31;2.10;99.90
63960;DHT22;50136;51.374;0.096;2023-04-03T04:23:33;2.10;99.90
63960;DHT22;50136;51.374;0.096;2023-04-03T04:33:37;2.00;99.90
63960;DHT22;50136;51.374;0.096;2023-04-03T04:43:39;2.10;99.90
63960;DHT22;50136;51.374;0.096;2023-04-03T04:53:42;2.20;99.90
63960;DHT22;50136;51.374;0.096;2023-04-03T05:03:44;2.30;99.90
63960;DHT22;50136;51.374;0.096;2023-04-03T05:13:48;2.40;99.90
63960;DHT22;50136;51.374;0.096;2023-04-03T05:23:51;2.50;99.90
63960;DHT22;50136;51.374;0.096;2023-04-03T05:33:54;2.60;99.90
63960;DHT22;50136;51.374;0.096;2023-04-03T05:43:56;2.80;99.90
63960;DHT22;50136;51.374;0.096;2023-04-03T05:54:06;2.80;99.90
63960;DHT22;50136;51.374;0.096;2023-04-03T06:04:08;2.90;99.90
63960;DHT22;50136;51.374;0.096;2023-04-03T06:14:12;3.10;99.90
63960;DHT22;50136;51.374;0.096;2023-04-03T06:24:16;3.20;99.90
63960;DHT22;50136;51.374;0.096;2023-04-03T06:34:19;3.50;99.90
63960;DHT22;50136;51.374;0.096;2023-04-03T06:44:21;3.70;99.90
63960;DHT22;50136;51.374;0.096;2023-04-03T06:54:25;3.90;99.90
63960;DHT22;50136;51.374;0.096;2023-04-03T07:04:27;4.20;99.90
63960;DHT22;50136;51.374;0.096;2023-04-03T07:14:31;4.50;99.90
63960;DHT22;50136;51.374;0.096;2023-04-03T07:24:33;4.60;99.90
63960;DHT22;50136;51.374;0.096;2023-04-03T07:34:37;5.00;99.90
63960;DHT22;50136;51.374;0.096;2023-04-03T07:44:39;5.50;99.90
63960;DHT22;50136;51.374;0.096;2023-04-03T07:54:42;5.90;99.90
63960;DHT22;50136;51.374;0.096;2023-04-03T08:04:44;5.90;99.90
63960;DHT22;50136;51.374;0.096;2023-04-03T08:14:50;6.20;99.90
63960;DHT22;50136;51.374;0.096;2023-04-03T08:24:52;6.40;99.90
63960;DHT22;50136;51.374;0.096;2023-04-03T08:35:01;6.80;99.90
63960;DHT22;50136;51.374;0.096;2023-04-03T08:45:10;7.30;99.90
63960;DHT22;50136;51.374;0.096;2023-04-03T08:55:22;7.80;99.90
63960;DHT22;50136;51.374;0.096;2023-04-03T09:05:35;8.40;99.90
63960;DHT22;50136;51.374;0.096;2023-04-03T09:15:44;10.90;99.90
63960;DHT22;50136;51.374;0.096;2023-04-03T09:25:46;13.00;99.90
63960;DHT22;50136;51.374;0.096;2023-04-03T09:35:51;12.60;99.90
63960;DHT22;50136;51.374;0.096;2023-04-03T09:45:54;13.60;99.90
63960;DHT22;50136;51.374;0.096;2023-04-03T09:55:59;13.10;99.90
63960;DHT22;50136;51.374;0.096;2023-04-03T10:06:03;11.40;99.90
63960;DHT22;50136;51.374;0.096;2023-04-03T10:16:08;11.10;99.90
63960;DHT22;50136;51.374;0.096;2023-04-03T10:26:20;10.60;99.90
63960;DHT22;50136;51.374;0.096;2023-04-03T10:36:36;10.40;99.90
63960;DHT22;50136;51.374;0.096;2023-04-03T10:46:43;10.40;99.90
63960;DHT22;50136;51.374;0.096;2023-04-03T10:56:48;10.70;99.90
63960;DHT22;50136;51.374;0.096;2023-04-03T11:07:16;11.00;99.90
63960;DHT22;50136;51.374;0.096;2023-04-03T11:17:28;12.30;99.90
63960;DHT22;50136;51.374;0.096;2023-04-03T11:27:53;12.50;99.90
63960;DHT22;50136;51.374;0.096;2023-04-03T11:37:58;12.30;99.90
63960;DHT22;50136;51.374;0.096;2023-04-03T11:48:04;12.90;99.90
63960;DHT22;50136;51.374;0.096;2023-04-03T11:58:28;12.70;99.90
63960;DHT22;50136;51.374;0.096;2023-04-03T12:08:44;12.40;99.90
63960;DHT22;50136;51.374;0.096;2023-04-03T12:18:57;12.40;99.80
63960;DHT22;50136;51.374;0.096;2023-04-03T12:29:02;11.80;99.90
63960;DHT22;50136;51.374;0.096;2023-04-03T12:39:48;12.30;99.90
63960;DHT22;50136;51.374;0.096;2023-04-03T12:49:53;12.30;99.00
63960;DHT22;50136;51.374;0.096;2023-04-03T12:59:58;12.00;99.60
63960;DHT22;50136;51.374;0.096;2023-04-03T13:10:02;11.80;99.90
63960;DHT22;50136;51.374;0.096;2023-04-03T13:20:17;12.00;99.90
63960;DHT22;50136;51.374;0.096;2023-04-03T13:30:23;12.10;98.60
63960;DHT22;50136;51.374;0.096;2023-04-03T13:40:27;12.00;98.80
63960;DHT22;50136;51.374;0.096;2023-04-03T13:50:57;12.30;98.80
63960;DHT22;50136;51.374;0.096;2023-04-03T14:01:08;12.30;97.40
63960;DHT22;50136;51.374;0.096;2023-04-03T14:11:16;12.50;98.50
63960;DHT22;50136;51.374;0.096;2023-04-03T14:21:21;12.40;98.40
63960;DHT22;50136;51.374;0.096;2023-04-03T14:31:24;12.60;99.50
63960;DHT22;50136;51.374;0.096;2023-04-03T14:41:28;12.30;99.50
63960;DHT22;50136;51.374;0.096;2023-04-03T14:51:30;12.50;98.90
63960;DHT22;50136;51.374;0.096;2023-04-03T15:01:33;12.50;99.30
63960;DHT22;50136;51.374;0.096;2023-04-03T15:11:36;12.70;99.80
63960;DHT22;50136;51.374;0.096;2023-04-03T15:21:39;12.60;99.70
63960;DHT22;50136;51.374;0.096;2023-04-03T15:31:41;12.70;99.40
63960;DHT22;50136;51.374;0.096;2023-04-03T15:41:45;12.40;98.70
63960;DHT22;50136;51.374;0.096;2023-04-03T15:51:47;12.40;98.00
63960;DHT22;50136;51.374;0.096;2023-04-03T16:01:51;12.10;97.70
63960;DHT22;50136;51.374;0.096;2023-04-03T16:11:54;12.10;97.90
63960;DHT22;50136;51.374;0.096;2023-04-03T16:21:57;12.00;98.50
63960;DHT22;50136;51.374;0.096;2023-04-03T16:32:00;11.60;99.90
63960;DHT22;50136;51.374;0.096;2023-04-03T16:42:04;11.50;99.80
63960;DHT22;50136;51.374;0.096;2023-04-03T16:52:06;11.10;99.90
63960;DHT22;50136;51.374;0.096;2023-04-03T17:02:10;10.70;99.90
63960;DHT22;50136;51.374;0.096;2023-04-03T17:12:12;10.60;99.90
63960;DHT22;50136;51.374;0.096;2023-04-03T17:22:15;10.30;99.90
63960;DHT22;50136;51.374;0.096;2023-04-03T17:32:18;9.70;99.90
63960;DHT22;50136;51.374;0.096;2023-04-03T17:42:21;9.30;99.90
63960;DHT22;50136;51.374;0.096;2023-04-03T17:52:24;8.90;99.90
63960;DHT22;50136;51.374;0.096;2023-04-03T18:13:46;8.20;99.90
63960;DHT22;50136;51.374;0.096;2023-04-03T18:23:49;8.00;99.90
63960;DHT22;50136;51.374;0.096;2023-04-03T18:33:54;7.80;99.90
63960;DHT22;50136;51.374;0.096;2023-04-03T18:43:57;7.60;99.90
63960;DHT22;50136;51.374;0.096;2023-04-03T18:54:01;7.50;99.90
63960;DHT22;50136;51.374;0.096;2023-04-03T19:04:06;7.30;99.90
63960;DHT22;50136;51.374;0.096;2023-04-03T19:14:10;7.10;99.90
63960;DHT22;50136;51.374;0.096;2023-04-03T19:24:17;7.10;99.90
63960;DHT22;50136;51.374;0.096;2023-04-03T19:45:01;6.80;99.90
63960;DHT22;50136;51.374;0.096;2023-04-03T19:55:04;6.60;99.90
63960;DHT22;50136;51.374;0.096;2023-04-03T20:05:08;6.40;99.90
63960;DHT22;50136;51.374;0.096;2023-04-03T20:15:11;6.30;99.90
63960;DHT22;50136;51.374;0.096;2023-04-03T20:25:14;6.30;99.90
63960;DHT22;50136;51.374;0.096;2023-04-03T20:35:36;6.20;99.90
63960;DHT22;50136;51.374;0.096;2023-04-03T20:45:39;6.10;99.90
63960;DHT22;50136;51.374;0.096;2023-04-03T20:55:41;6.10;99.90
63960;DHT22;50136;51.374;0.096;2023-04-03T21:05:46;5.90;99.90
63960;DHT22;50136;51.374;0.096;2023-04-03T21:25:52;5.50;99.90
63960;DHT22;50136;51.374;0.096;2023-04-03T21:35:53;5.30;99.90
63960;DHT22;50136;51.374;0.096;2023-04-03T21:45:57;5.10;99.90
63960;DHT22;50136;51.374;0.096;2023-04-03T21:55:59;5.00;99.90
63960;DHT22;50136;51.374;0.096;2023-04-03T22:06:03;4.70;99.90
63960;DHT22;50136;51.374;0.096;2023-04-03T22:16:06;4.50;99.90
63960;DHT22;50136;51.374;0.096;2023-04-03T22:26:11;4.40;99.90
63960;DHT22;50136;51.374;0.096;2023-04-03T22:36:13;4.20;99.90
63960;DHT22;50136;51.374;0.096;2023-04-03T22:46:17;4.00;99.90
63960;DHT22;50136;51.374;0.096;2023-04-03T22:56:19;3.80;99.90
63960;DHT22;50136;51.374;0.096;2023-04-03T23:06:22;3.70;99.90
63960;DHT22;50136;51.374;0.096;2023-04-03T23:16:24;3.60;99.90
63960;DHT22;50136;51.374;0.096;2023-04-03T23:26:28;3.40;99.90
63960;DHT22;50136;51.374;0.096;2023-04-03T23:36:30;3.30;99.90
63960;DHT22;50136;51.374;0.096;2023-04-03T23:46:33;3.00;99.90
63960;DHT22;50136;51.374;0.096;2023-04-03T23:56:36;2.90;99.90
